Time;durP1;ratioP1;P1;durP2;ratioP2;P2;SDS_P1;SDS_P2;PMS_P1;PMS_P2;Temp;Humidity;BMP_temperature;BMP_pressure;BME280_temperature;BME280_humidity;BME280_pressure;Samples;Min_cycle;Max_cycle;Signal;HPM_P1;HPM_P2
2023/09/21 00:04:58;;;;;;;1.48;0.90;;;;;;;;;;12955980;22;20019;-78
2023/09/21 00:10:02;;;;;;;0.90;0.73;;;;;;;;;;12955296;22;20110;-78
2023/09/21 00:15:06;;;;;;;1.20;0.85;;;;;;;;;;12983341;22;20650;-78
2023/09/21 00:20:13;;;;;;;1.00;0.80;;;;;;;;;;12989021;22;20031;-78
2023/09/21 00:25:19;;;;;;;2.35;1.10;;;;;;;;;;12988516;22;20027;-78
2023/09/21 00:30:22;;;;;;;1.48;0.73;;;;;;;;;;12988007;22;20098;-78
2023/09/21 00:35:28;;;;;;;0.73;0.65;;;;;;;;;;12988002;22;20076;-78
2023/09/21 00:40:32;;;;;;;1.73;0.93;;;;;;;;;;12955529;22;20530;-78
2023/09/21 00:45:37;;;;;;;1.73;0.80;;;;;;;;;;12986482;22;20039;-78
2023/09/21 00:50:43;;;;;;;1.15;0.63;;;;;;;;;;12985963;22;20023;-78
2023/09/21 00:55:52;;;;;;;0.90;0.63;;;;;;;;;;12955828;22;20020;-78
2023/09/21 01:00:57;;;;;;;1.40;0.73;;;;;;;;;;12955522;22;20073;-78
2023/09/21 01:06:07;;;;;;;0.80;0.70;;;;;;;;;;12955048;22;20046;-78
2023/09/21 01:11:13;;;;;;;1.48;0.70;;;;;;;;;;12983627;22;20027;-78
2023/09/21 01:16:17;;;;;;;0.88;0.80;;;;;;;;;;12982881;22;20140;-78
2023/09/21 01:21:30;;;;;;;0.80;0.60;;;;;;;;;;12978695;22;20047;-79
2023/09/21 01:26:36;;;;;;;0.65;0.50;;;;;;;;;;12997225;22;20028;-78
2023/09/21 01:31:40;;;;;;;1.02;0.70;;;;;;;;;;12956018;22;20486;-78
2023/09/21 01:36:46;;;;;;;1.52;0.90;;;;;;;;;;12955621;22;20031;-78
2023/09/21 01:41:53;;;;;;;;;;;;;;;;;;13002893;22;20098;-78
2023/09/21 01:46:57;;;;;;;0.57;0.50;;;;;;;;;;12954520;22;20333;-78
2023/09/21 01:52:00;;;;;;;1.42;0.82;;;;;;;;;;12999616;22;20015;-78
2023/09/21 01:57:08;;;;;;;0.85;0.70;;;;;;;;;;12950824;22;20514;-78
2023/09/21 02:02:19;;;;;;;1.38;0.70;;;;;;;;;;12953941;22;20034;-79
2023/09/21 02:07:23;;;;;;;1.15;0.65;;;;;;;;;;12998337;22;20081;-78
2023/09/21 02:12:28;;;;;;;1.25;0.80;;;;;;;;;;12998106;22;20466;-78
2023/09/21 02:17:31;;;;;;;1.90;1.00;;;;;;;;;;12954451;22;20035;-78
2023/09/21 02:22:34;;;;;;;1.77;1.10;;;;;;;;;;12998031;22;20081;-78
2023/09/21 02:27:40;;;;;;;2.28;1.02;;;;;;;;;;12952634;22;20106;-78
2023/09/21 02:32:48;;;;;;;1.00;0.80;;;;;;;;;;12996793;22;20024;-78
2023/09/21 02:37:52;;;;;;;2.35;1.08;;;;;;;;;;12953624;22;20481;-78
2023/09/21 02:42:57;;;;;;;2.88;1.30;;;;;;;;;;12955622;22;20034;-78
2023/09/21 02:48:01;;;;;;;1.20;1.10;;;;;;;;;;12957316;22;20459;-78
2023/09/21 02:53:10;;;;;;;1.67;1.00;;;;;;;;;;12954861;22;20028;-78
2023/09/21 02:58:15;;;;;;;2.25;1.30;;;;;;;;;;12954768;22;20031;-78
2023/09/21 03:03:30;;;;;;;1.10;0.80;;;;;;;;;;12956404;22;20071;-78
2023/09/21 03:08:33;;;;;;;1.98;0.93;;;;;;;;;;12958494;22;20034;-78
2023/09/21 03:13:38;;;;;;;1.20;1.10;;;;;;;;;;12957758;22;20028;-79
2023/09/21 03:18:46;;;;;;;2.15;1.30;;;;;;;;;;12957224;22;20024;-78
2023/09/21 03:23:52;;;;;;;2.20;1.35;;;;;;;;;;12996584;22;20020;-79
2023/09/21 03:28:58;;;;;;;1.42;0.80;;;;;;;;;;12971444;22;20091;-79
2023/09/21 03:34:05;;;;;;;2.23;1.20;;;;;;;;;;12975549;22;20081;-78
2023/09/21 03:39:10;;;;;;;1.52;0.98;;;;;;;;;;12963341;22;20258;-78
2023/09/21 03:44:15;;;;;;;1.07;0.80;;;;;;;;;;12996505;22;20027;-78
2023/09/21 03:49:18;;;;;;;1.15;0.80;;;;;;;;;;12994624;22;20250;-78
2023/09/21 03:54:22;;;;;;;2.08;1.33;;;;;;;;;;12958189;22;20063;-78
2023/09/21 03:59:28;;;;;;;2.40;0.90;;;;;;;;;;12992511;22;20119;-78
2023/09/21 04:04:31;;;;;;;1.33;0.85;;;;;;;;;;12957328;22;20182;-77
2023/09/21 04:09:34;;;;;;;1.35;0.90;;;;;;;;;;12957192;22;20019;-78
2023/09/21 04:14:39;;;;;;;1.20;0.75;;;;;;;;;;12991807;22;20054;-78
2023/09/21 04:19:43;;;;;;;1.02;0.90;;;;;;;;;;12956706;22;20020;-78
2023/09/21 04:24:46;;;;;;;1.02;0.80;;;;;;;;;;12956065;22;20402;-78
2023/09/21 04:29:51;;;;;;;1.05;0.90;;;;;;;;;;12988894;22;20020;-78
2023/09/21 04:34:55;;;;;;;1.60;1.00;;;;;;;;;;12988889;22;20030;-78
2023/09/21 04:39:59;;;;;;;0.60;0.60;;;;;;;;;;12987477;22;20024;-79
2023/09/21 04:45:09;;;;;;;0.77;0.60;;;;;;;;;;12987516;22;20030;-79
2023/09/21 04:50:14;;;;;;;0.95;0.70;;;;;;;;;;12953340;22;20019;-78
2023/09/21 04:55:22;;;;;;;1.58;1.08;;;;;;;;;;12983611;22;20030;-77
2023/09/21 05:00:28;;;;;;;1.20;0.90;;;;;;;;;;12987388;22;20023;-77
2023/09/21 05:05:31;;;;;;;1.35;0.80;;;;;;;;;;12955200;22;20470;-77
2023/09/21 05:10:34;;;;;;;1.45;1.17;;;;;;;;;;12955755;22;20027;-77
2023/09/21 05:15:40;;;;;;;1.70;1.00;;;;;;;;;;12985840;22;20394;-78
2023/09/21 05:20:45;;;;;;;1.25;0.80;;;;;;;;;;12985410;22;20490;-77
2023/09/21 05:25:48;;;;;;;1.50;0.90;;;;;;;;;;12984451;22;20466;-77
2023/09/21 05:30:54;;;;;;;2.13;1.25;;;;;;;;;;12981161;22;20110;-78
2023/09/21 05:36:04;;;;;;;1.33;0.68;;;;;;;;;;12994319;22;20047;-79
2023/09/21 05:41:10;;;;;;;1.30;1.10;;;;;;;;;;12993051;22;20016;-78
2023/09/21 05:46:15;;;;;;;;;;;;;;;;;;12983962;22;20058;-79
2023/09/21 05:51:18;;;;;;;1.13;0.90;;;;;;;;;;12983882;22;20330;-77
2023/09/21 05:56:21;;;;;;;1.50;1.10;;;;;;;;;;12983265;22;20474;-78
2023/09/21 06:01:26;;;;;;;1.25;1.00;;;;;;;;;;12983572;22;20011;-78
2023/09/21 06:06:31;;;;;;;1.42;0.80;;;;;;;;;;12982367;22;20077;-77
2023/09/21 06:11:34;;;;;;;1.05;0.85;;;;;;;;;;12981706;22;20455;-78
2023/09/21 06:16:41;;;;;;;1.17;0.60;;;;;;;;;;12954607;22;20043;-78
2023/09/21 06:21:45;;;;;;;1.00;0.90;;;;;;;;;;12983331;22;20035;-77
2023/09/21 06:26:48;;;;;;;2.42;1.10;;;;;;;;;;12982161;22;20024;-78
2023/09/21 06:31:54;;;;;;;1.40;0.70;;;;;;;;;;12982553;22;20016;-77
2023/09/21 06:37:07;;;;;;;2.45;0.90;;;;;;;;;;13000138;22;20027;-77
2023/09/21 06:42:11;;;;;;;1.73;0.90;;;;;;;;;;13003389;22;20024;-78
2023/09/21 06:47:17;;;;;;;1.50;0.85;;;;;;;;;;13002540;22;20023;-77
2023/09/21 06:52:21;;;;;;;1.33;1.10;;;;;;;;;;13004137;22;20024;-77
2023/09/21 06:57:24;;;;;;;1.00;0.90;;;;;;;;;;12961737;22;20028;-78
2023/09/21 07:02:29;;;;;;;1.60;0.90;;;;;;;;;;13003190;22;20031;-78
2023/09/21 07:07:32;;;;;;;2.13;1.05;;;;;;;;;;13001278;22;20027;-78
2023/09/21 07:12:37;;;;;;;1.00;0.88;;;;;;;;;;13002305;22;20047;-78
2023/09/21 07:17:41;;;;;;;0.73;0.55;;;;;;;;;;13001529;22;20054;-77
2023/09/21 07:22:45;;;;;;;2.50;0.90;;;;;;;;;;12999391;22;20497;-77
2023/09/21 07:27:52;;;;;;;0.80;0.80;;;;;;;;;;12957013;22;20040;-78
2023/09/21 07:32:57;;;;;;;1.10;1.00;;;;;;;;;;12999660;22;20050;-78
2023/09/21 07:38:01;;;;;;;2.38;0.77;;;;;;;;;;12999981;22;20023;-78
2023/09/21 07:43:06;;;;;;;1.55;0.75;;;;;;;;;;12982288;22;20020;-77
2023/09/21 07:48:12;;;;;;;1.63;0.80;;;;;;;;;;12989757;22;20035;-78
2023/09/21 07:53:16;;;;;;;1.83;1.20;;;;;;;;;;12959334;22;20020;-77
2023/09/21 07:58:19;;;;;;;1.55;0.73;;;;;;;;;;12957097;22;20091;-78
2023/09/21 08:03:25;;;;;;;0.80;0.70;;;;;;;;;;12997194;22;20561;-77
2023/09/21 08:08:29;;;;;;;2.63;1.00;;;;;;;;;;12982379;22;20031;-78
2023/09/21 08:13:33;;;;;;;1.50;0.88;;;;;;;;;;12993737;22;20110;-77
2023/09/21 08:18:39;;;;;;;0.60;0.60;;;;;;;;;;12993417;22;20028;-78
2023/09/21 08:23:42;;;;;;;1.10;0.60;;;;;;;;;;12993519;22;20497;-77
2023/09/21 08:28:47;;;;;;;0.98;0.60;;;;;;;;;;12953681;22;20031;-78
2023/09/21 08:33:52;;;;;;;1.30;0.60;;;;;;;;;;12981540;22;20520;-78
2023/09/21 08:38:55;;;;;;;1.05;0.93;;;;;;;;;;12991141;22;20043;-77
2023/09/21 08:43:59;;;;;;;1.77;0.90;;;;;;;;;;12992235;22;20027;-77
2023/09/21 08:49:03;;;;;;;1.75;1.00;;;;;;;;;;12992075;22;20324;-77
2023/09/21 08:54:08;;;;;;;1.20;0.80;;;;;;;;;;12981143;22;20073;-78
2023/09/21 08:59:14;;;;;;;1.55;0.93;;;;;;;;;;12990406;22;20023;-77
2023/09/21 09:04:20;;;;;;;0.93;0.65;;;;;;;;;;12991137;22;20023;-77
2023/09/21 09:09:24;;;;;;;1.83;0.80;;;;;;;;;;12989681;22;20016;-78
2023/09/21 09:14:27;;;;;;;1.15;0.70;;;;;;;;;;12980766;22;20027;-77
2023/09/21 09:19:32;;;;;;;1.10;0.80;;;;;;;;;;12989369;22;20108;-77
2023/09/21 09:24:36;;;;;;;1.05;0.73;;;;;;;;;;12979530;22;20476;-77
2023/09/21 09:29:49;;;;;;;1.08;0.88;;;;;;;;;;12987757;22;20040;-77
2023/09/21 09:34:53;;;;;;;1.05;0.82;;;;;;;;;;12988093;22;20044;-77
2023/09/21 09:39:57;;;;;;;2.28;0.93;;;;;;;;;;12997511;22;20363;-78
2023/09/21 09:45:03;;;;;;;1.42;0.80;;;;;;;;;;13007638;22;20028;-78
2023/09/21 09:50:09;;;;;;;0.90;0.70;;;;;;;;;;12987166;22;20030;-77
2023/09/21 09:55:13;;;;;;;1.13;0.95;;;;;;;;;;12979272;22;20024;-78
2023/09/21 10:00:21;;;;;;;1.23;0.82;;;;;;;;;;12954628;22;20043;-78
2023/09/21 10:05:27;;;;;;;1.33;0.70;;;;;;;;;;12985337;22;20027;-78
2023/09/21 10:10:36;;;;;;;1.67;0.85;;;;;;;;;;12980391;22;20579;-78
2023/09/21 10:15:43;;;;;;;0.82;0.70;;;;;;;;;;12988917;22;20520;-77
2023/09/21 10:20:47;;;;;;;1.45;0.90;;;;;;;;;;12957076;22;20011;-77
2023/09/21 10:25:51;;;;;;;1.90;0.65;;;;;;;;;;12987475;22;20043;-77
2023/09/21 10:31:09;;;;;;;1.00;0.70;;;;;;;;;;12987723;22;20074;-77
2023/09/21 10:36:19;;;;;;;1.08;0.60;;;;;;;;;;12985712;22;20026;-77
2023/09/21 10:41:32;;;;;;;1.23;0.90;;;;;;;;;;12957260;22;20015;-77
2023/09/21 10:46:40;;;;;;;0.93;0.80;;;;;;;;;;12957884;22;20111;-78
2023/09/21 10:51:47;;;;;;;0.95;0.70;;;;;;;;;;12985833;22;20091;-77
2023/09/21 10:56:50;;;;;;;0.80;0.45;;;;;;;;;;13003197;22;20431;-78
2023/09/21 11:01:54;;;;;;;2.33;0.70;;;;;;;;;;13005611;22;20046;-78
2023/09/21 11:06:59;;;;;;;1.02;0.60;;;;;;;;;;13007844;22;20387;-78
2023/09/21 11:12:03;;;;;;;0.75;0.60;;;;;;;;;;13005755;22;20019;-78
2023/09/21 11:17:07;;;;;;;0.82;0.65;;;;;;;;;;13004411;22;20047;-78
2023/09/21 11:22:12;;;;;;;0.55;0.50;;;;;;;;;;13003956;22;20027;-77
2023/09/21 11:27:16;;;;;;;1.05;0.60;;;;;;;;;;12985665;22;20030;-77
2023/09/21 11:32:19;;;;;;;1.63;0.80;;;;;;;;;;13003584;22;20023;-77
2023/09/21 11:37:26;;;;;;;0.65;0.50;;;;;;;;;;13003209;22;20027;-77
2023/09/21 11:42:29;;;;;;;2.00;0.55;;;;;;;;;;13003162;22;20035;-78
2023/09/21 11:47:32;;;;;;;1.13;0.60;;;;;;;;;;12998129;22;20020;-78
2023/09/21 11:52:37;;;;;;;0.50;0.47;;;;;;;;;;13005201;22;20024;-78
2023/09/21 11:57:42;;;;;;;0.60;0.50;;;;;;;;;;13005455;22;20050;-77
2023/09/21 12:02:46;;;;;;;0.87;0.40;;;;;;;;;;13003466;22;20366;-78
2023/09/21 12:07:51;;;;;;;0.75;0.50;;;;;;;;;;12985796;22;20024;-77
2023/09/21 12:12:55;;;;;;;0.63;0.45;;;;;;;;;;12986240;22;20023;-78
2023/09/21 12:17:58;;;;;;;0.98;0.68;;;;;;;;;;12986128;22;20022;-78
2023/09/21 12:23:07;;;;;;;1.00;0.85;;;;;;;;;;13000883;22;20642;-77
2023/09/21 12:28:11;;;;;;;0.65;0.50;;;;;;;;;;12998545;22;20031;-77
2023/09/21 12:33:15;;;;;;;0.90;0.50;;;;;;;;;;12958432;22;20020;-77
2023/09/21 12:38:23;;;;;;;3.05;0.90;;;;;;;;;;12996953;22;20034;-77
2023/09/21 12:43:26;;;;;;;3.88;1.10;;;;;;;;;;12984146;22;20046;-77
2023/09/21 12:48:30;;;;;;;3.22;1.27;;;;;;;;;;12998316;22;20043;-78
2023/09/21 12:53:34;;;;;;;5.03;0.90;;;;;;;;;;12995362;22;20031;-78
2023/09/21 12:58:38;;;;;;;2.00;1.17;;;;;;;;;;12993296;22;20471;-77
2023/09/21 13:03:41;;;;;;;1.10;1.00;;;;;;;;;;12995143;22;20031;-78
2023/09/21 13:08:46;;;;;;;2.40;1.20;;;;;;;;;;12982861;22;20050;-78
2023/09/21 13:13:49;;;;;;;2.65;1.45;;;;;;;;;;12980961;22;20070;-78
2023/09/21 13:18:52;;;;;;;1.20;1.10;;;;;;;;;;12992920;22;20031;-77
2023/09/21 13:23:57;;;;;;;2.35;1.42;;;;;;;;;;12992792;22;20077;-77
2023/09/21 13:29:00;;;;;;;4.93;1.60;;;;;;;;;;12991138;22;20023;-77
2023/09/21 13:34:04;;;;;;;1.90;1.27;;;;;;;;;;12981109;22;20020;-78
2023/09/21 14:24:07;;;;;;;1.07;0.90;;;;;;;;;;12893404;23;20033;-77
2023/09/21 15:12:37;;;;;;;;;;;;;;;;;;;;;
2023/09/21 15:19:13;;;;;;;;;;;;;;;;;;;;;
2023/09/21 15:31:29;;;;;;;;;;;;;;;;;;;;;
2023/09/21 15:38:11;;;;;;;1.38;0.88;;;;;;;;;;12581459;23;20018;-87
2023/09/21 15:52:05;;;;;;;0.70;0.68;;;;;;;;;;12461437;23;20417;-89
2023/09/21 15:58:37;;;;;;;1.48;0.88;;;;;;;;;;12414038;23;20023;-86
2023/09/21 16:51:56;;;;;;;;;;;;;;;;;;;;;
2023/09/21 17:18:19;;;;;;;4.13;0.73;;;;;;;;;;12667646;23;20021;-88
2023/09/21 17:23:31;;;;;;;1.20;0.37;;;;;;;;;;12898678;23;20016;-89
2023/09/21 17:28:38;;;;;;;1.10;0.30;;;;;;;;;;12922538;23;20031;-90
2023/09/21 17:33:46;;;;;;;0.45;0.35;;;;;;;;;;12938849;23;20282;-89
2023/09/21 17:39:00;;;;;;;2.22;0.50;;;;;;;;;;12914807;23;20024;-90
2023/09/21 17:44:05;;;;;;;0.65;0.40;;;;;;;;;;12920614;23;20024;-89
2023/09/21 17:49:11;;;;;;;0.47;0.10;;;;;;;;;;12940746;23;20078;-89
2023/09/21 17:54:15;;;;;;;0.52;0.30;;;;;;;;;;12934281;23;20016;-89
2023/09/21 17:59:19;;;;;;;1.80;0.20;;;;;;;;;;12924992;23;20504;-90
2023/09/21 18:04:25;;;;;;;1.92;0.30;;;;;;;;;;12899213;23;20092;-89
2023/09/21 18:09:29;;;;;;;0.40;0.20;;;;;;;;;;12891207;23;20028;-89
2023/09/21 18:14:33;;;;;;;0.75;0.20;;;;;;;;;;12889778;23;20026;-89
2023/09/21 18:19:38;;;;;;;0.60;0.20;;;;;;;;;;12889750;23;20569;-89
2023/09/21 18:24:42;;;;;;;0.63;0.25;;;;;;;;;;12895061;23;20082;-89
2023/09/21 18:29:46;;;;;;;0.88;0.30;;;;;;;;;;12893084;23;20046;-89
2023/09/21 18:34:53;;;;;;;0.52;0.25;;;;;;;;;;12895652;23;20020;-90
2023/09/21 18:39:57;;;;;;;1.60;0.20;;;;;;;;;;12892778;23;20028;-89
2023/09/21 19:44:48;;;;;;;1.02;0.40;;;;;;;;;;10571617;27;20356;-79
2023/09/21 19:49:51;;;;;;;0.30;0.30;;;;;;;;;;10530061;28;20104;-79
2023/09/21 19:54:55;;;;;;;0.57;0.30;;;;;;;;;;10534839;28;20783;-79
2023/09/21 19:59:59;;;;;;;0.38;0.15;;;;;;;;;;10531162;28;20135;-79
2023/09/21 20:05:03;;;;;;;1.15;0.25;;;;;;;;;;10528930;28;20052;-78
2023/09/21 20:10:07;;;;;;;2.60;0.22;;;;;;;;;;10527638;28;20127;-79
2023/09/21 20:15:12;;;;;;;1.27;0.22;;;;;;;;;;10526224;28;20115;-79
2023/09/21 20:20:16;;;;;;;0.77;0.30;;;;;;;;;;10526494;28;20064;-79
2023/09/21 20:25:19;;;;;;;2.58;0.40;;;;;;;;;;10525097;28;20051;-79
2023/09/21 20:30:24;;;;;;;0.55;0.25;;;;;;;;;;10526108;28;20055;-79
2023/09/21 20:35:27;;;;;;;1.38;0.30;;;;;;;;;;10524957;28;20119;-80
2023/09/21 20:40:32;;;;;;;0.30;0.30;;;;;;;;;;10531284;28;20545;-80
2023/09/21 20:45:37;;;;;;;0.20;0.20;;;;;;;;;;10523989;28;20074;-79
2023/09/21 20:50:40;;;;;;;0.15;0.10;;;;;;;;;;10527117;28;20409;-80
2023/09/21 20:55:44;;;;;;;0.60;0.20;;;;;;;;;;10496059;28;20124;-79
2023/09/21 21:00:49;;;;;;;0.20;0.20;;;;;;;;;;10495395;28;20057;-79
2023/09/21 21:05:52;;;;;;;0.50;0.28;;;;;;;;;;10494096;28;20055;-79
2023/09/21 21:10:56;;;;;;;0.47;0.20;;;;;;;;;;10510240;28;20480;-80
2023/09/21 21:16:00;;;;;;;0.45;0.30;;;;;;;;;;10510676;28;20564;-80
2023/09/21 21:21:04;;;;;;;0.45;0.15;;;;;;;;;;10495764;28;20411;-79
2023/09/21 21:26:08;;;;;;;0.93;0.20;;;;;;;;;;10492904;28;20127;-79
2023/09/21 21:31:12;;;;;;;1.25;0.20;;;;;;;;;;10495256;28;20037;-79
2023/09/21 21:36:16;;;;;;;2.22;0.30;;;;;;;;;;10495619;28;20033;-79
2023/09/21 21:41:20;;;;;;;0.17;0.17;;;;;;;;;;10496046;28;20131;-79
2023/09/21 21:46:25;;;;;;;0.10;0.10;;;;;;;;;;10493871;28;20667;-79
2023/09/21 21:51:28;;;;;;;0.55;0.20;;;;;;;;;;10491705;28;20041;-79
2023/09/21 21:56:32;;;;;;;0.80;0.17;;;;;;;;;;10493196;28;20162;-79
2023/09/21 22:01:36;;;;;;;0.20;0.15;;;;;;;;;;10493557;28;20118;-79
2023/09/21 22:06:39;;;;;;;0.15;0.10;;;;;;;;;;10492387;28;20091;-78
2023/09/21 22:11:43;;;;;;;0.50;0.10;;;;;;;;;;10492160;28;20056;-78
2023/09/21 22:16:47;;;;;;;0.50;0.30;;;;;;;;;;10492916;28;20418;-78
2023/09/21 22:21:51;;;;;;;0.10;0.10;;;;;;;;;;10493266;28;20128;-79
2023/09/21 22:26:54;;;;;;;0.57;0.20;;;;;;;;;;10492155;28;20047;-79
2023/09/21 22:31:59;;;;;;;0.50;0.10;;;;;;;;;;10493025;28;20123;-78
2023/09/21 22:37:02;;;;;;;0.45;0.15;;;;;;;;;;10495125;28;20040;-78
2023/09/21 22:42:06;;;;;;;0.28;0.20;;;;;;;;;;10486930;28;20519;-78
2023/09/21 22:47:10;;;;;;;0.15;0.10;;;;;;;;;;10492152;28;20127;-78
2023/09/21 22:52:14;;;;;;;0.60;0.40;;;;;;;;;;10490172;28;20132;-78
2023/09/21 22:57:17;;;;;;;0.20;0.20;;;;;;;;;;10491689;28;20060;-78
2023/09/21 23:02:22;;;;;;;0.20;0.20;;;;;;;;;;10491703;28;20040;-78
2023/09/21 23:07:27;;;;;;;0.45;0.30;;;;;;;;;;10493983;28;20041;-78
2023/09/21 23:12:33;;;;;;;0.65;0.20;;;;;;;;;;10491279;28;20147;-78
2023/09/21 23:17:40;;;;;;;0.73;0.38;;;;;;;;;;10496905;28;20040;-79
2023/09/21 23:22:45;;;;;;;0.40;0.20;;;;;;;;;;10512903;28;20044;-79
2023/09/21 23:27:48;;;;;;;0.40;0.28;;;;;;;;;;10494084;28;20067;-78
2023/09/21 23:32:53;;;;;;;0.88;0.50;;;;;;;;;;10490823;28;20048;-79
2023/09/21 23:37:56;;;;;;;0.50;0.40;;;;;;;;;;10488963;28;20033;-78
2023/09/21 23:43:00;;;;;;;0.70;0.40;;;;;;;;;;10490289;28;20044;-79
2023/09/21 23:48:07;;;;;;;0.50;0.40;;;;;;;;;;10489818;28;20507;-78
2023/09/21 23:53:15;;;;;;;0.98;0.40;;;;;;;;;;10488264;28;20043;-79
2023/09/21 23:58:18;;;;;;;0.98;0.50;;;;;;;;;;10485064;28;20130;-79
